AIB280 CYHZ-KORD
Flight info
| Callsign | AIB280 |
|---|---|
| Flight time | N/A |
| Altitude | 40000 |
| Route | SENVI DCT VIGMA/N0497F430 DCT ALLEX Q822 FNT WYNDE3 |
| Aircraft | A359/H-SDE2E3GHIJ3J4J5LM1ORWXY/LB1D1 |
Departure
| Time | 2026-05-08 04:12 |
|---|---|
| Airport | Halifax / Stanfield International Airport (CYHZ) |
Arrival
| Time | N/A |
|---|---|
| Airport | Chicago O'Hare International Airport (KORD) |
| Time | Latitude | Longitude | Altitude | Speed | Heading |
|---|---|---|---|---|---|
| 2026-05-08 03:30 | 44.88642 | -63.51354 | 463 ft | 0 kts | 257° |
| 2026-05-08 03:47 | 44.88645 | -63.51335 | 462 ft | 2 kts | 257° |
| 2026-05-08 03:47 | 44.88648 | -63.51313 | 462 ft | 2 kts | 257° |
| 2026-05-08 03:47 | 44.88652 | -63.51290 | 459 ft | 2 kts | 257° |
| 2026-05-08 03:48 | 44.88656 | -63.51268 | 459 ft | 2 kts | 257° |
| 2026-05-08 03:48 | 44.88659 | -63.51245 | 461 ft | 2 kts | 267° |
| 2026-05-08 03:48 | 44.88653 | -63.51225 | 462 ft | 2 kts | 319° |
| 2026-05-08 03:48 | 44.88639 | -63.51212 | 459 ft | 2 kts | 335° |
| 2026-05-08 03:49 | 44.88634 | -63.51209 | 460 ft | 0 kts | 341° |
| 2026-05-08 03:49 | 44.88635 | -63.51209 | 460 ft | 0 kts | 341° |
| 2026-05-08 03:49 | 44.88636 | -63.51210 | 461 ft | 0 kts | 341° |
| 2026-05-08 03:49 | 44.88643 | -63.51214 | 458 ft | 2 kts | 340° |
| 2026-05-08 03:50 | 44.88670 | -63.51229 | 459 ft | 6 kts | 336° |
| 2026-05-08 03:50 | 44.88721 | -63.51266 | 463 ft | 10 kts | 330° |
| 2026-05-08 03:50 | 44.88790 | -63.51335 | 463 ft | 14 kts | 320° |
| 2026-05-08 03:50 | 44.88865 | -63.51447 | 463 ft | 17 kts | 308° |
| 2026-05-08 03:51 | 44.88923 | -63.51597 | 463 ft | 8 kts | 279° |
| 2026-05-08 03:51 | 44.88924 | -63.51598 | 463 ft | 0 kts | 281° |
| 2026-05-08 03:53 | 44.88917 | -63.51564 | 465 ft | 3 kts | 315° |
| 2026-05-08 03:54 | 44.88912 | -63.51555 | 464 ft | 3 kts | 275° |
| 2026-05-08 03:55 | 44.88905 | -63.51470 | 463 ft | 0 kts | 287° |
| 2026-05-08 03:55 | 44.88907 | -63.51475 | 463 ft | 1 kts | 290° |
| 2026-05-08 03:55 | 44.88913 | -63.51482 | 461 ft | 1 kts | 326° |
| 2026-05-08 03:55 | 44.88925 | -63.51471 | 461 ft | 2 kts | 46° |
| 2026-05-08 03:56 | 44.88950 | -63.51426 | 463 ft | 14 kts | 52° |
| 2026-05-08 03:56 | 44.89025 | -63.51277 | 463 ft | 24 kts | 43° |
| 2026-05-08 03:56 | 44.89082 | -63.51193 | 462 ft | 1 kts | 67° |
| 2026-05-08 03:56 | 44.89078 | -63.51159 | 462 ft | 0 kts | 126° |
| 2026-05-08 03:57 | 44.89076 | -63.51154 | 462 ft | 0 kts | 125° |
| 2026-05-08 04:07 | 44.89070 | -63.51143 | 462 ft | 3 kts | 125° |
| 2026-05-08 04:07 | 44.89044 | -63.51091 | 461 ft | 9 kts | 125° |
| 2026-05-08 04:08 | 44.88997 | -63.50995 | 461 ft | 14 kts | 125° |
| 2026-05-08 04:08 | 44.88933 | -63.50867 | 462 ft | 17 kts | 125° |
| 2026-05-08 04:08 | 44.88856 | -63.50712 | 463 ft | 21 kts | 125° |
| 2026-05-08 04:08 | 44.88767 | -63.50531 | 462 ft | 24 kts | 125° |
| 2026-05-08 04:09 | 44.88662 | -63.50320 | 463 ft | 28 kts | 125° |
| 2026-05-08 04:09 | 44.88545 | -63.50083 | 463 ft | 31 kts | 125° |
| 2026-05-08 04:09 | 44.88418 | -63.49825 | 464 ft | 33 kts | 125° |
| 2026-05-08 04:09 | 44.88283 | -63.49552 | 467 ft | 35 kts | 125° |
| 2026-05-08 04:10 | 44.88206 | -63.49397 | 463 ft | 0 kts | 125° |
| 2026-05-08 04:10 | 44.88205 | -63.49396 | 463 ft | 1 kts | 126° |
| 2026-05-08 04:10 | 44.88192 | -63.49379 | 466 ft | 2 kts | 122° |
| 2026-05-08 04:10 | 44.88195 | -63.49368 | 463 ft | 0 kts | 73° |
| 2026-05-08 04:11 | 44.88182 | -63.49381 | 467 ft | 0 kts | 309° |
| 2026-05-08 04:11 | 44.88185 | -63.49386 | 468 ft | 3 kts | 310° |
| 2026-05-08 04:11 | 44.88375 | -63.49737 | 465 ft | 93 kts | 304° |
| 2026-05-08 04:11 | 44.88907 | -63.50825 | 566 ft | 164 kts | 303° |
| 2026-05-08 04:12 | 44.89542 | -63.52139 | 1647 ft | 161 kts | 303° |
| 2026-05-08 04:12 | 44.89786 | -63.53732 | 2427 ft | 178 kts | 266° |
| 2026-05-08 04:12 | 44.89423 | -63.55484 | 3180 ft | 195 kts | 249° |
| 2026-05-08 04:12 | 44.89074 | -63.57406 | 3932 ft | 209 kts | 261° |
| 2026-05-08 04:13 | 44.88854 | -63.59492 | 4706 ft | 222 kts | 264° |
| 2026-05-08 04:13 | 44.88680 | -63.61733 | 5510 ft | 236 kts | 265° |
| 2026-05-08 04:13 | 44.88521 | -63.64102 | 6381 ft | 249 kts | 265° |
| 2026-05-08 04:13 | 44.88358 | -63.66576 | 7400 ft | 254 kts | 263° |
| 2026-05-08 04:14 | 44.88189 | -63.69049 | 8657 ft | 252 kts | 261° |
| 2026-05-08 04:14 | 44.88012 | -63.71497 | 9942 ft | 251 kts | 259° |
| 2026-05-08 04:14 | 44.87817 | -63.74007 | 10855 ft | 264 kts | 259° |
| 2026-05-08 04:14 | 44.87603 | -63.76648 | 11710 ft | 278 kts | 259° |
| 2026-05-08 04:15 | 44.87377 | -63.79416 | 12554 ft | 291 kts | 260° |
| 2026-05-08 04:15 | 44.87143 | -63.82288 | 13345 ft | 305 kts | 260° |
| 2026-05-08 04:15 | 44.86900 | -63.85320 | 14064 ft | 317 kts | 260° |
| 2026-05-08 04:15 | 44.86653 | -63.88438 | 14947 ft | 322 kts | 260° |
| 2026-05-08 04:16 | 44.86406 | -63.91589 | 15933 ft | 325 kts | 259° |
| 2026-05-08 04:16 | 44.86156 | -63.94760 | 16925 ft | 327 kts | 259° |
| 2026-05-08 04:16 | 44.85901 | -63.97962 | 17918 ft | 329 kts | 258° |
| 2026-05-08 04:16 | 44.85642 | -64.01186 | 18804 ft | 332 kts | 257° |
| 2026-05-08 04:17 | 44.85379 | -64.04432 | 19761 ft | 334 kts | 257° |
| 2026-05-08 04:17 | 44.85115 | -64.07682 | 20723 ft | 335 kts | 257° |
| 2026-05-08 04:17 | 44.84846 | -64.10964 | 21615 ft | 339 kts | 257° |
| 2026-05-08 04:17 | 44.84573 | -64.14279 | 22454 ft | 343 kts | 257° |
| 2026-05-08 04:18 | 44.84295 | -64.17642 | 23316 ft | 347 kts | 256° |
| 2026-05-08 04:18 | 44.84014 | -64.21036 | 24046 ft | 350 kts | 256° |
| 2026-05-08 04:18 | 44.83736 | -64.24407 | 24822 ft | 351 kts | 255° |
| 2026-05-08 04:18 | 44.83454 | -64.27828 | 25614 ft | 352 kts | 254° |
| 2026-05-08 04:19 | 44.83169 | -64.31257 | 26391 ft | 354 kts | 253° |
| 2026-05-08 04:19 | 44.82879 | -64.34715 | 27119 ft | 356 kts | 253° |
| 2026-05-08 04:19 | 44.82584 | -64.38199 | 27843 ft | 359 kts | 252° |
| 2026-05-08 04:19 | 44.82287 | -64.41706 | 28588 ft | 361 kts | 252° |
| 2026-05-08 04:20 | 44.81988 | -64.45230 | 29323 ft | 363 kts | 251° |
| 2026-05-08 04:20 | 44.81686 | -64.48782 | 29972 ft | 366 kts | 251° |
| 2026-05-08 04:20 | 44.81377 | -64.52361 | 30408 ft | 373 kts | 252° |
| 2026-05-08 04:20 | 44.81059 | -64.55995 | 30705 ft | 381 kts | 252° |
| 2026-05-08 04:21 | 44.80747 | -64.59664 | 30940 ft | 371 kts | 252° |
| 2026-05-08 04:21 | 44.80450 | -64.63259 | 31085 ft | 370 kts | 252° |
| 2026-05-08 04:21 | 44.80133 | -64.66906 | 31218 ft | 379 kts | 252° |
| 2026-05-08 04:21 | 44.79803 | -64.70622 | 31493 ft | 385 kts | 252° |
| 2026-05-08 04:22 | 44.79469 | -64.74387 | 31844 ft | 389 kts | 252° |
| 2026-05-08 04:22 | 44.79136 | -64.78174 | 32192 ft | 392 kts | 252° |
| 2026-05-08 04:22 | 44.78800 | -64.82010 | 32558 ft | 395 kts | 252° |
| 2026-05-08 04:22 | 44.78461 | -64.85856 | 32884 ft | 398 kts | 252° |
| 2026-05-08 04:23 | 44.78119 | -64.89735 | 33218 ft | 400 kts | 252° |
| 2026-05-08 04:23 | 44.77773 | -64.93639 | 33536 ft | 403 kts | 252° |
| 2026-05-08 04:23 | 44.77426 | -64.97524 | 33840 ft | 407 kts | 253° |
| 2026-05-08 04:23 | 44.77066 | -65.01517 | 33929 ft | 414 kts | 254° |
| 2026-05-08 04:24 | 44.76704 | -65.05555 | 34261 ft | 414 kts | 254° |
| 2026-05-08 04:24 | 44.76346 | -65.09571 | 34763 ft | 411 kts | 255° |
| 2026-05-08 04:24 | 44.75992 | -65.13541 | 35242 ft | 408 kts | 255° |
| 2026-05-08 04:24 | 44.75636 | -65.17487 | 35686 ft | 406 kts | 255° |
| 2026-05-08 04:25 | 44.75276 | -65.21439 | 36104 ft | 405 kts | 255° |
| 2026-05-08 04:25 | 44.74919 | -65.25318 | 36519 ft | 405 kts | 255° |
| 2026-05-08 04:25 | 44.74556 | -65.29250 | 36922 ft | 404 kts | 255° |
| 2026-05-08 04:25 | 44.74193 | -65.33164 | 37353 ft | 403 kts | 255° |
| 2026-05-08 04:26 | 44.73830 | -65.37063 | 37783 ft | 401 kts | 255° |
| 2026-05-08 04:26 | 44.73467 | -65.40949 | 38229 ft | 400 kts | 256° |
| 2026-05-08 04:26 | 44.73102 | -65.44837 | 38539 ft | 401 kts | 256° |
| 2026-05-08 04:26 | 44.72733 | -65.48746 | 38737 ft | 404 kts | 256° |
| 2026-05-08 04:27 | 44.72360 | -65.52674 | 38944 ft | 405 kts | 256° |
| 2026-05-08 04:27 | 44.71986 | -65.56617 | 39171 ft | 407 kts | 256° |
| 2026-05-08 04:27 | 44.71616 | -65.60512 | 39392 ft | 408 kts | 256° |
| 2026-05-08 04:27 | 44.71239 | -65.64469 | 39607 ft | 409 kts | 257° |
| 2026-05-08 04:28 | 44.70859 | -65.68435 | 39722 ft | 410 kts | 257° |
| 2026-05-08 04:28 | 44.70479 | -65.72404 | 39740 ft | 409 kts | 257° |
| 2026-05-08 04:28 | 44.69711 | -65.80358 | 39956 ft | 411 kts | 257° |
| 2026-05-08 04:29 | 44.69324 | -65.84339 | 40202 ft | 411 kts | 257° |
| 2026-05-08 04:29 | 44.68934 | -65.88331 | 40440 ft | 413 kts | 257° |
| 2026-05-08 04:29 | 44.68540 | -65.92348 | 40553 ft | 417 kts | 257° |
| 2026-05-08 04:29 | 44.68142 | -65.96389 | 40758 ft | 418 kts | 257° |
| 2026-05-08 04:30 | 44.67743 | -66.00431 | 40998 ft | 418 kts | 257° |
| 2026-05-08 04:30 | 44.67343 | -66.04485 | 41198 ft | 419 kts | 257° |
| 2026-05-08 04:30 | 44.66940 | -66.08542 | 41412 ft | 420 kts | 258° |
| 2026-05-08 04:30 | 44.66540 | -66.12554 | 41610 ft | 421 kts | 258° |
| 2026-05-08 04:31 | 44.66132 | -66.16633 | 41729 ft | 422 kts | 258° |
| 2026-05-08 04:31 | 44.65722 | -66.20715 | 41736 ft | 422 kts | 258° |
| 2026-05-08 04:31 | 44.64899 | -66.28878 | 41728 ft | 422 kts | 258° |
| 2026-05-08 04:32 | 44.64069 | -66.37030 | 41730 ft | 422 kts | 258° |
| 2026-05-08 04:32 | 44.63232 | -66.45194 | 41741 ft | 422 kts | 258° |
| 2026-05-08 04:33 | 44.62393 | -66.53323 | 41740 ft | 422 kts | 258° |
| 2026-05-08 04:33 | 44.61543 | -66.61494 | 41741 ft | 422 kts | 258° |
| 2026-05-08 04:34 | 44.60695 | -66.69592 | 41747 ft | 422 kts | 257° |
| 2026-05-08 04:34 | 44.59835 | -66.77744 | 41778 ft | 422 kts | 258° |
| 2026-05-08 04:35 | 44.58965 | -66.85921 | 41757 ft | 424 kts | 258° |
| 2026-05-08 04:35 | 44.58088 | -66.94122 | 41753 ft | 425 kts | 258° |
| 2026-05-08 04:36 | 44.57206 | -67.02320 | 41776 ft | 425 kts | 258° |
| 2026-05-08 04:36 | 44.56317 | -67.10513 | 41777 ft | 425 kts | 257° |
| 2026-05-08 04:37 | 44.55422 | -67.18712 | 41781 ft | 425 kts | 257° |
| 2026-05-08 04:37 | 44.54526 | -67.26853 | 41782 ft | 426 kts | 258° |
| 2026-05-08 04:38 | 44.53614 | -67.35089 | 41779 ft | 428 kts | 258° |
| 2026-05-08 04:38 | 44.52694 | -67.43343 | 41779 ft | 428 kts | 258° |
| 2026-05-08 04:39 | 44.51768 | -67.51598 | 41785 ft | 428 kts | 257° |
| 2026-05-08 04:39 | 44.50838 | -67.59833 | 41785 ft | 428 kts | 257° |
| 2026-05-08 04:40 | 44.49901 | -67.68069 | 41815 ft | 428 kts | 258° |
| 2026-05-08 04:40 | 44.48961 | -67.76283 | 41783 ft | 430 kts | 258° |
| 2026-05-08 04:41 | 44.48006 | -67.84562 | 41793 ft | 430 kts | 257° |
| 2026-05-08 04:41 | 44.47047 | -67.92836 | 41789 ft | 430 kts | 257° |
| 2026-05-08 04:42 | 44.46244 | -67.99716 | 41792 ft | 430 kts | 257° |
| 2026-05-08 04:42 | 44.45273 | -68.07985 | 41800 ft | 430 kts | 257° |
| 2026-05-08 04:43 | 44.44294 | -68.16274 | 41804 ft | 431 kts | 257° |
| 2026-05-08 04:43 | 44.43307 | -68.24564 | 41803 ft | 431 kts | 258° |
| 2026-05-08 04:44 | 44.42318 | -68.32832 | 41805 ft | 430 kts | 257° |
| 2026-05-08 04:44 | 44.41323 | -68.41098 | 41804 ft | 430 kts | 257° |
| 2026-05-08 04:45 | 44.40329 | -68.49298 | 41796 ft | 430 kts | 257° |
| 2026-05-08 04:45 | 44.39323 | -68.57539 | 41821 ft | 431 kts | 257° |
| 2026-05-08 04:46 | 44.38305 | -68.65829 | 41808 ft | 433 kts | 257° |
| 2026-05-08 04:46 | 44.37282 | -68.74121 | 41797 ft | 433 kts | 257° |
| 2026-05-08 04:47 | 44.36249 | -68.82440 | 41800 ft | 433 kts | 257° |
| 2026-05-08 04:47 | 44.35212 | -68.90732 | 41802 ft | 433 kts | 257° |
| 2026-05-08 04:48 | 44.34178 | -68.98954 | 41808 ft | 432 kts | 257° |
| 2026-05-08 04:48 | 44.33130 | -69.07233 | 41809 ft | 433 kts | 257° |
| 2026-05-08 04:49 | 44.32072 | -69.15536 | 41802 ft | 434 kts | 257° |
| 2026-05-08 04:49 | 44.31008 | -69.23849 | 41811 ft | 434 kts | 257° |
| 2026-05-08 04:50 | 44.29945 | -69.32098 | 41813 ft | 434 kts | 257° |
| 2026-05-08 04:50 | 44.28869 | -69.40394 | 41812 ft | 434 kts | 257° |
| 2026-05-08 04:51 | 44.27790 | -69.48682 | 41818 ft | 434 kts | 257° |
| 2026-05-08 04:51 | 44.27222 | -69.57102 | 41820 ft | 436 kts | 264° |
| 2026-05-08 04:52 | 44.26953 | -69.65569 | 41826 ft | 437 kts | 264° |
| 2026-05-08 04:52 | 44.26695 | -69.74041 | 41821 ft | 437 kts | 264° |
| 2026-05-08 04:53 | 44.26436 | -69.82450 | 41830 ft | 437 kts | 264° |
| 2026-05-08 04:53 | 44.26169 | -69.90920 | 41828 ft | 438 kts | 264° |
| 2026-05-08 04:54 | 44.25895 | -69.99426 | 41835 ft | 439 kts | 264° |
| 2026-05-08 04:54 | 44.25615 | -70.07936 | 41833 ft | 439 kts | 264° |
| 2026-05-08 04:55 | 44.25329 | -70.16453 | 41837 ft | 439 kts | 264° |
| 2026-05-08 04:55 | 44.25036 | -70.24963 | 41835 ft | 439 kts | 264° |
| 2026-05-08 04:56 | 44.24737 | -70.33436 | 41826 ft | 441 kts | 264° |
| 2026-05-08 04:56 | 44.24430 | -70.41987 | 41837 ft | 441 kts | 264° |
| 2026-05-08 04:57 | 44.24117 | -70.50540 | 41840 ft | 441 kts | 264° |
| 2026-05-08 04:57 | 44.23797 | -70.59076 | 41848 ft | 441 kts | 264° |
| 2026-05-08 04:58 | 44.23471 | -70.67622 | 41849 ft | 441 kts | 264° |
| 2026-05-08 04:58 | 44.23139 | -70.76166 | 41855 ft | 441 kts | 264° |
| 2026-05-08 04:59 | 44.22800 | -70.84708 | 41860 ft | 441 kts | 264° |
| 2026-05-08 04:59 | 44.22457 | -70.93192 | 41855 ft | 441 kts | 264° |
| 2026-05-08 05:00 | 44.22106 | -71.01733 | 41852 ft | 441 kts | 264° |
| 2026-05-08 05:00 | 44.21748 | -71.10270 | 41862 ft | 441 kts | 264° |
| 2026-05-08 05:01 | 44.21381 | -71.18860 | 41855 ft | 445 kts | 264° |
| 2026-05-08 05:01 | 44.21009 | -71.27432 | 41856 ft | 445 kts | 264° |
| 2026-05-08 05:02 | 44.20629 | -71.36029 | 41860 ft | 444 kts | 264° |
| 2026-05-08 05:02 | 44.20243 | -71.44627 | 41868 ft | 444 kts | 264° |
| 2026-05-08 05:03 | 44.19850 | -71.53216 | 41871 ft | 444 kts | 264° |
| 2026-05-08 05:03 | 44.19450 | -71.61831 | 41861 ft | 445 kts | 264° |
| 2026-05-08 05:04 | 44.19047 | -71.70377 | 41865 ft | 445 kts | 264° |
| 2026-05-08 05:04 | 44.18635 | -71.78974 | 41857 ft | 445 kts | 264° |
| 2026-05-08 05:05 | 44.18216 | -71.87578 | 41853 ft | 445 kts | 264° |
| 2026-05-08 05:05 | 44.17790 | -71.96179 | 41850 ft | 445 kts | 264° |
| 2026-05-08 05:06 | 44.17359 | -72.04772 | 41855 ft | 445 kts | 264° |
| 2026-05-08 05:06 | 44.16920 | -72.13372 | 41854 ft | 445 kts | 264° |
| 2026-05-08 05:07 | 44.16476 | -72.21967 | 41882 ft | 444 kts | 264° |
| 2026-05-08 05:07 | 44.16026 | -72.30544 | 41917 ft | 444 kts | 264° |
| 2026-05-08 05:08 | 44.15798 | -72.34839 | 42037 ft | 446 kts | 264° |
| 2026-05-08 05:08 | 44.15567 | -72.39159 | 42297 ft | 446 kts | 264° |
| 2026-05-08 05:08 | 44.15335 | -72.43465 | 42550 ft | 445 kts | 264° |
| 2026-05-08 05:08 | 44.15115 | -72.47766 | 42751 ft | 446 kts | 265° |
| 2026-05-08 05:09 | 44.15124 | -72.52041 | 42918 ft | 445 kts | 271° |
| 2026-05-08 05:09 | 44.15483 | -72.56222 | 42542 ft | 429 kts | 277° |
| 2026-05-08 05:09 | 44.16216 | -72.60230 | 41546 ft | 427 kts | 284° |
| 2026-05-08 05:09 | 44.17377 | -72.64092 | 40051 ft | 439 kts | 291° |
| 2026-05-08 05:10 | 44.18838 | -72.67923 | 38443 ft | 451 kts | 292° |
| 2026-05-08 05:10 | 44.21926 | -72.75744 | 34361 ft | 469 kts | 292° |
| 2026-05-08 05:10 | 44.23479 | -72.79702 | 32140 ft | 473 kts | 292° |
| 2026-05-08 05:11 | 44.25058 | -72.83748 | 29715 ft | 477 kts | 292° |
| 2026-05-08 05:11 | 44.26645 | -72.87837 | 27176 ft | 479 kts | 294° |
| 2026-05-08 05:11 | 44.28214 | -72.91878 | 25434 ft | 467 kts | 294° |
| 2026-05-08 05:11 | 44.29739 | -72.95809 | 23871 ft | 452 kts | 295° |
| 2026-05-08 05:12 | 44.31209 | -72.99615 | 22129 ft | 440 kts | 296° |
| 2026-05-08 05:12 | 44.32636 | -73.03315 | 20490 ft | 424 kts | 296° |
| 2026-05-08 05:12 | 44.34016 | -73.06898 | 18842 ft | 412 kts | 296° |
| 2026-05-08 05:12 | 44.35350 | -73.10370 | 17160 ft | 400 kts | 296° |
| 2026-05-08 05:13 | 44.36647 | -73.13756 | 15476 ft | 390 kts | 296° |
| 2026-05-08 05:13 | 44.37570 | -73.17145 | 14486 ft | 363 kts | 280° |
| 2026-05-08 05:13 | 44.37662 | -73.20557 | 13263 ft | 347 kts | 263° |
| 2026-05-08 05:13 | 44.36957 | -73.23770 | 11298 ft | 351 kts | 245° |
| 2026-05-08 05:14 | 44.35453 | -73.26503 | 9361 ft | 361 kts | 225° |
| 2026-05-08 05:14 | 44.33317 | -73.28365 | 7480 ft | 365 kts | 206° |
| 2026-05-08 05:14 | 44.30838 | -73.29140 | 5673 ft | 365 kts | 188° |
| 2026-05-08 05:14 | 44.28400 | -73.29771 | 4187 ft | 348 kts | 204° |
| 2026-05-08 05:15 | 44.26449 | -73.31496 | 3370 ft | 316 kts | 225° |
| 2026-05-08 05:15 | 44.25134 | -73.33724 | 2985 ft | 280 kts | 240° |
| 2026-05-08 05:15 | 44.24357 | -73.36031 | 2890 ft | 252 kts | 253° |
| 2026-05-08 05:15 | 44.23978 | -73.38394 | 2870 ft | 248 kts | 265° |
| 2026-05-08 05:16 | 44.24274 | -73.40745 | 2875 ft | 247 kts | 295° |
| 2026-05-08 05:16 | 44.25314 | -73.42488 | 2871 ft | 230 kts | 324° |
| 2026-05-08 05:16 | 44.26858 | -73.43258 | 2874 ft | 247 kts | 350° |
| 2026-05-08 05:16 | 44.28603 | -73.43377 | 2865 ft | 255 kts | 1° |
| 2026-05-08 05:17 | 44.30366 | -73.42883 | 2869 ft | 259 kts | 14° |
| 2026-05-08 05:17 | 44.32074 | -73.42061 | 3037 ft | 265 kts | 18° |
| 2026-05-08 05:17 | 44.33865 | -73.41116 | 3476 ft | 281 kts | 19° |
| 2026-05-08 05:17 | 44.35629 | -73.40148 | 3813 ft | 265 kts | 19° |
| 2026-05-08 05:18 | 44.37317 | -73.39211 | 3876 ft | 260 kts | 18° |
| 2026-05-08 05:18 | 44.39002 | -73.38276 | 3870 ft | 260 kts | 18° |
| 2026-05-08 05:18 | 44.40681 | -73.37341 | 3870 ft | 260 kts | 18° |
| 2026-05-08 05:18 | 44.42342 | -73.36413 | 3866 ft | 260 kts | 18° |
| 2026-05-08 05:19 | 44.44056 | -73.35641 | 3866 ft | 257 kts | 7° |
| 2026-05-08 05:19 | 44.45813 | -73.35715 | 3872 ft | 251 kts | 343° |
| 2026-05-08 05:19 | 44.47452 | -73.36514 | 3860 ft | 249 kts | 335° |
| 2026-05-08 05:19 | 44.49031 | -73.37462 | 3543 ft | 240 kts | 333° |
| 2026-05-08 05:20 | 44.50519 | -73.38363 | 3109 ft | 226 kts | 335° |
| 2026-05-08 05:20 | 44.51931 | -73.39172 | 2748 ft | 212 kts | 335° |
| 2026-05-08 05:20 | 44.53243 | -73.39933 | 2473 ft | 196 kts | 334° |
| 2026-05-08 05:20 | 44.54440 | -73.40630 | 2205 ft | 175 kts | 334° |
| 2026-05-08 05:21 | 44.55489 | -73.41239 | 1972 ft | 156 kts | 334° |
| 2026-05-08 05:21 | 44.56447 | -73.41795 | 1758 ft | 142 kts | 334° |
| 2026-05-08 05:21 | 44.57322 | -73.42303 | 1562 ft | 130 kts | 334° |
| 2026-05-08 05:21 | 44.58131 | -73.42775 | 1362 ft | 122 kts | 334° |
| 2026-05-08 05:22 | 44.58897 | -73.43232 | 1182 ft | 118 kts | 333° |
| 2026-05-08 05:22 | 44.59655 | -73.43702 | 1013 ft | 120 kts | 335° |
| 2026-05-08 05:22 | 44.60430 | -73.44136 | 853 ft | 121 kts | 339° |
| 2026-05-08 05:22 | 44.61213 | -73.44572 | 714 ft | 122 kts | 338° |
| 2026-05-08 05:23 | 44.61993 | -73.45030 | 537 ft | 122 kts | 336° |
| 2026-05-08 05:23 | 44.62780 | -73.45473 | 375 ft | 122 kts | 339° |
| 2026-05-08 05:23 | 44.63555 | -73.45916 | 227 ft | 123 kts | 338° |
| 2026-05-08 05:23 | 44.64302 | -73.46351 | 194 ft | 94 kts | 338° |
| 2026-05-08 05:24 | 44.64728 | -73.46599 | 209 ft | 56 kts | 337° |
| 2026-05-08 05:24 | 44.65061 | -73.46792 | 217 ft | 43 kts | 338° |
| 2026-05-08 05:24 | 44.65176 | -73.46858 | 217 ft | 15 kts | 338° |
| 2026-05-08 05:24 | 44.65290 | -73.46923 | 215 ft | 20 kts | 338° |
| 2026-05-08 05:25 | 44.65383 | -73.46977 | 219 ft | 0 kts | 337° |